This is the latest recevied weather packets stored in our database for station/object PD2SKZ-12. If no packets are shown the sender has not sent any weather packets the latest 10 day(s).
| Time | Temp. | Humidity | Pressure | Rain* | Wind** | Luminosity | Snow |
|---|---|---|---|---|---|---|---|
| 1777693187 | 11.11° C | 66% | 1018.9 hPa | 0 mm | - | - | - |
| 1777692307 | 11.67° C | 66% | 1018.9 hPa | 0 mm | - | - | - |
| 1777690207 | 12.22° C | 65% | 1019.1 hPa | 0 mm | - | - | - |
| 1777686767 | 11.11° C | 72% | 1019.4 hPa | 0 mm | - | - | - |
| 1777684037 | 11.67° C | 69% | 1019.6 hPa | 0 mm | - | - | - |
| 1777683707 | 12.22° C | 68% | 1019.6 hPa | 0 mm | - | - | - |
| 1777681928 | 12.22° C | 66% | 1019.8 hPa | 0 mm | - | - | - |
| 1777681627 | 12.22° C | 68% | 1019.8 hPa | 0 mm | - | - | - |
| 1777681007 | 12.22° C | 70% | 1019.9 hPa | 0 mm | - | - | - |
| 1777680408 | 12.22° C | 71% | 1019.9 hPa | 0 mm | - | - | - |
| 1777679187 | 12.22° C | 68% | 1020.1 hPa | 0 mm | - | - | - |
| 1777677367 | 12.78° C | 66% | 1020.4 hPa | 0 mm | - | - | - |
| 1777677068 | 12.78° C | 67% | 1020.5 hPa | 0 mm | - | - | - |
| 1777673989 | 13.33° C | 68% | 1020.7 hPa | 0 mm | - | - | - |
| 1777670387 | 14.44° C | 56% | 1020.9 hPa | 0 mm | - | - | - |
| 1777669488 | 15° C | 52% | 1020.9 hPa | 0 mm | - | - | - |
| 1777668588 | 15° C | 51% | 1021 hPa | 0 mm | - | - | - |
| 1777668288 | 15.56° C | 50% | 1021 hPa | 0 mm | - | - | - |
| 1777667088 | 16.11° C | 47% | 1021 hPa | 0 mm | - | - | - |
| 1777666187 | 16.11° C | 45% | 1021 hPa | 0 mm | - | - | - |
| 1777663788 | 18.33° C | 37% | 1021 hPa | 0 mm | - | - | - |
| 1777662588 | 19.44° C | 35% | 1020.9 hPa | 0 mm | - | - | - |
| 1777658688 | 22.78° C | 28% | 1021 hPa | 0 mm | - | - | - |
| 1777658388 | 23.33° C | 27% | 1020.9 hPa | 0 mm | - | - | - |
| 1777656288 | 26.11° C | 19% | 1020.9 hPa | 0 mm | - | - | - |
* Rain latest hour (hover to see other rain measurements)
** Current wind speed in m/s (hover to see current wind gust speed)